Terminal Aerodrome Forecast
Issued by NWS

Home | Current Version | Previous Version | Graphics & Text | Print | Product List | Glossary On
Versions: 1 2 3 4 5 6 7 8 9 10 11 12 13 14 15 16 17 18 19 20 21 22 23 24 25 26 27 28 29 30 31 32 33 34 35 36 37 38 39 40 41 42 43 44 45 46 47 48 49 50
000
FTUS43 KLOT 182333
TAFGYY
TAF
KGYY 182333Z 1900/1924 16015G22KT P6SM BKN250 WS020/20045KT
     FM190600 18012KT P6SM SCT020 BKN040
     FM190900 19008KT 3SM BR SCT008 OVC012
      TEMPO 1910/1912 1SM BR SCT004 OVC008
     FM191200 15006KT 1SM -SHRA BR OVC004
      TEMPO 1912/1916 1/2SM -DZ FG OVC002
     FM191900 20014G21KT 1 1/2SM -RA BR OVC004=

USA.gov is the U.S. government's official web portal to all federal, state and local government web resources and services.